Kahului Airport Kahului US
ICAO: PHOG
IATA:
Category: Medium
Scheduled Services:

Elevation: 54 ft
TransAlt. 18000 ft.

Airport Communications:
MAUI APP/DEP:119.5
ATIS:128.6
MAUI CLNC DEL:120.6
CTAF:118.7
GND:121.9
MAUI RDO:123.6
MAUI TWR:118.7
UNICOM:122.95

PHOG Zoom In..

If Map Doesn't Load, Click Here

Runways:

(A) RW 02 length 6995 ft width 150 ft
ILS 110.10 / hdg 24

(B) RW 05 length 4990 ft width 150 ft
---- / hdg 54

(C) RW 20 length 6995 ft width 150 ft
---- / hdg 204

(D) RW 23 length 4990 ft width 150 ft
---- / hdg 234

Location; PHOG
Day. 26 / Time. 09.54 Zulu
* Altimeter: 29.88
* Temperature: 25° c. 77°f.
* Wind from: 160° Speed 04 kn.
Dewpoint: 24° c.
Visibility: 10 Statute Miles.
Clouds: Few 3900 ft.

PHOG 260954Z AUTO 16004KT 10SM FEW039 25/24 A2988 RMK AO2 SLP123 T02500239 403390211 TSNO


Wind From 160°
Speed 04 kn.

 
 
jpsmedia.com for Web Design worldairports.se 2018   terms of use